Time;durP1;ratioP1;P1;durP2;ratioP2;P2;SDS_P1;SDS_P2;PMS_P1;PMS_P2;Temp;Humidity;BMP_temperature;BMP_pressure;BME280_temperature;BME280_humidity;BME280_pressure;Samples;Min_cycle;Max_cycle;Signal;HPM_P1;HPM_P2
2022/01/21 00:01:37;;;;;;;37.45;18.48;;;;;;;-3.33;87.55;97722.34;4995100;28;20557;-78
2022/01/21 00:04:04;;;;;;;37.00;20.52;;;;;;;-3.37;87.77;97708.72;4978535;28;20062;-77
2022/01/21 00:06:29;;;;;;;41.67;20.60;;;;;;;-3.37;87.00;97705.34;5011377;28;20048;-77
2022/01/21 00:08:55;;;;;;;40.00;22.00;;;;;;;-3.37;87.89;97715.50;5012382;28;20125;-77
2022/01/21 00:11:22;;;;;;;40.08;21.38;;;;;;;-3.35;87.33;97706.22;5012233;28;20085;-77
2022/01/21 00:13:48;;;;;;;37.58;20.90;;;;;;;-3.35;88.61;97703.69;5012987;28;20042;-77
2022/01/21 00:16:21;;;;;;;41.42;21.00;;;;;;;-3.37;88.27;97695.22;5015676;28;20034;-76
2022/01/21 00:18:56;;;;;;;40.33;20.67;;;;;;;-3.35;87.86;97693.53;4998570;28;20042;-76
2022/01/21 00:32:19;;;;;;;37.45;20.50;;;;;;;-3.39;87.35;97681.63;5014537;28;20461;-75
2022/01/21 00:34:44;;;;;;;40.97;21.95;;;;;;;-3.42;87.17;97674.00;5014429;28;20045;-76
2022/01/21 00:37:10;;;;;;;36.67;20.63;;;;;;;-3.44;87.59;97668.03;5014319;28;20048;-76
2022/01/21 00:39:36;;;;;;;37.25;20.35;;;;;;;-3.39;87.28;97668.97;5014223;28;20045;-76
2022/01/21 00:42:30;;;;;;;35.83;20.08;;;;;;;-3.42;86.98;97663.84;4997858;28;20508;-77
2022/01/21 00:44:59;;;;;;;40.88;20.20;;;;;;;-3.42;87.48;97666.38;5014028;28;20034;-75
2022/01/21 00:47:26;;;;;;;38.05;19.45;;;;;;;-3.42;87.04;97668.91;5015874;28;20037;-77
2022/01/21 00:49:52;;;;;;;41.08;21.45;;;;;;;-3.46;87.41;97660.41;4997565;28;20034;-77
2022/01/21 00:52:17;;;;;;;38.90;20.73;;;;;;;-3.48;87.47;97663.72;4981697;28;20039;-77
2022/01/21 00:54:43;;;;;;;40.15;19.85;;;;;;;-3.51;87.65;97656.94;5014206;28;20048;-76
2022/01/21 00:57:09;;;;;;;37.28;20.13;;;;;;;-3.46;88.02;97662.09;5015247;28;20060;-75
2022/01/21 00:59:35;;;;;;;39.65;21.75;;;;;;;-3.49;87.71;97669.63;5030151;28;20050;-77
2022/01/21 01:02:00;;;;;;;40.92;20.33;;;;;;;-3.47;87.65;97670.53;5013821;28;20484;-77
2022/01/21 01:04:27;;;;;;;;;;;;;;;-3.49;87.64;97667.09;4998001;28;20057;-76
2022/01/21 01:06:52;;;;;;;40.05;20.95;;;;;;;-3.52;87.23;97664.50;5029948;28;19917;-76
2022/01/21 01:09:18;;;;;;;40.80;21.23;;;;;;;-3.50;87.16;97661.16;5013726;28;20041;-76
2022/01/21 01:12:12;;;;;;;39.35;21.90;;;;;;;-3.53;87.34;97653.50;5013690;28;20484;-76
2022/01/21 01:20:08;;;;;;;42.45;23.67;;;;;;;-3.56;87.28;97640.78;5013551;28;20050;-76
2022/01/21 01:27:58;;;;;;;38.88;21.05;;;;;;;-3.56;86.53;97639.94;5013419;28;20069;-78
2022/01/21 01:30:26;;;;;;;40.45;20.92;;;;;;;-3.56;87.04;97642.47;5013478;28;20029;-75
2022/01/21 01:32:58;;;;;;;39.47;21.10;;;;;;;-3.53;86.72;97645.88;4980620;28;20505;-77
2022/01/21 01:35:25;;;;;;;41.80;20.90;;;;;;;-3.52;86.95;97637.47;5014207;28;20477;-77
2022/01/21 01:51:25;;;;;;;39.45;21.17;;;;;;;-3.42;86.57;97636.81;5012580;28;20046;-75
2022/01/21 01:54:06;;;;;;;41.17;21.33;;;;;;;-3.43;86.24;97631.72;5029011;28;20044;-76
2022/01/21 01:56:34;;;;;;;39.47;21.75;;;;;;;-3.45;86.84;97630.84;5028840;28;20048;-76
2022/01/21 01:59:00;;;;;;;40.30;21.50;;;;;;;-3.39;86.63;97630.94;4995840;28;20041;-75
2022/01/21 02:01:26;;;;;;;37.05;20.98;;;;;;;-3.46;86.66;97616.47;4980153;28;20409;-75
2022/01/21 02:03:51;;;;;;;38.22;21.23;;;;;;;-3.44;87.14;97614.78;5029020;28;20077;-76
2022/01/21 02:06:18;;;;;;;40.42;22.08;;;;;;;-3.46;86.67;97624.06;5013530;28;20062;-76
2022/01/21 02:08:44;;;;;;;42.20;22.27;;;;;;;-3.49;87.28;97629.91;5012595;28;20100;-76
2022/01/21 02:11:10;;;;;;;39.47;21.60;;;;;;;-3.47;86.86;97632.50;5012569;28;20053;-76
2022/01/21 02:13:42;;;;;;;38.75;21.38;;;;;;;-3.54;87.26;97621.38;5028873;28;20045;-76
2022/01/21 02:16:35;;;;;;;39.97;21.75;;;;;;;-3.58;87.21;97620.47;5029506;28;20042;-76
2022/01/21 02:21:47;;;;;;;40.60;22.65;;;;;;;-3.56;87.92;97619.66;5012130;28;20128;-75
2022/01/21 02:24:23;;;;;;;42.00;23.05;;;;;;;-3.59;87.92;97607.75;4995947;28;20033;-78
2022/01/21 02:26:51;;;;;;;41.03;21.90;;;;;;;-3.53;88.16;97618.00;5012241;28;20469;-76
2022/01/21 02:29:32;;;;;;;41.22;22.30;;;;;;;-3.56;87.54;97617.97;5028856;28;20147;-76
2022/01/21 02:32:00;;;;;;;39.20;22.92;;;;;;;-3.57;87.56;97621.34;5030443;28;20065;-76
2022/01/21 02:34:26;;;;;;;42.13;22.50;;;;;;;-3.57;87.81;97616.28;4995947;28;20493;-75
2022/01/21 02:36:52;;;;;;;41.35;23.33;;;;;;;-3.55;87.37;97617.13;5010719;28;20042;-76
2022/01/21 02:39:18;;;;;;;39.17;22.65;;;;;;;-3.56;87.52;97609.53;5028100;28;20064;-76
2022/01/21 02:41:44;;;;;;;40.30;22.50;;;;;;;-3.58;87.50;97612.84;4995381;28;20065;-76
2022/01/21 02:44:14;;;;;;;40.72;22.92;;;;;;;-3.58;87.65;97609.47;5012807;28;20045;-75
2022/01/21 02:46:45;;;;;;;38.63;21.88;;;;;;;-3.54;87.30;97615.44;5011346;28;20042;-76
2022/01/21 02:49:11;;;;;;;35.40;20.38;;;;;;;-3.55;87.43;97613.75;5011669;28;20038;-76
2022/01/21 02:51:37;;;;;;;41.38;22.80;;;;;;;-3.56;87.76;97607.84;4995388;28;20080;-76
2022/01/21 02:54:04;;;;;;;38.00;21.90;;;;;;;-3.52;87.95;97606.22;5027975;28;20100;-76
2022/01/21 02:56:30;;;;;;;38.28;21.38;;;;;;;-3.52;87.21;97603.69;4995212;28;20041;-76
2022/01/21 02:58:55;;;;;;;;;;;;;;;-3.56;87.19;97599.38;4995677;28;20037;-75
2022/01/21 03:01:23;;;;;;;41.75;21.88;;;;;;;-3.52;87.29;97598.63;5044668;28;19949;-76
2022/01/21 03:03:50;;;;;;;39.67;22.42;;;;;;;-3.53;87.77;97591.81;4995071;28;20583;-76
2022/01/21 03:06:17;;;;;;;40.33;22.45;;;;;;;-3.48;87.86;97587.69;5011612;28;20128;-76
2022/01/21 03:08:44;;;;;;;41.35;22.23;;;;;;;-3.50;86.70;97587.66;4995235;28;20046;-76
2022/01/21 03:11:12;;;;;;;41.47;22.35;;;;;;;-3.47;87.25;97582.66;5012846;28;20034;-77
2022/01/21 03:13:39;;;;;;;40.10;21.75;;;;;;;-3.47;86.86;97589.41;5011554;28;20400;-77
2022/01/21 03:16:05;;;;;;;41.83;22.98;;;;;;;-3.47;86.85;97585.19;4995206;28;20374;-76
2022/01/21 03:18:31;;;;;;;37.67;21.40;;;;;;;-3.44;86.78;97592.81;5012646;28;20412;-76
2022/01/21 03:20:57;;;;;;;41.08;23.35;;;;;;;-3.38;87.05;97587.03;4978982;28;20042;-76
2022/01/21 03:23:24;;;;;;;35.05;20.42;;;;;;;-3.44;87.24;97582.69;5011352;28;20045;-76
2022/01/21 03:25:50;;;;;;;35.22;20.65;;;;;;;-3.39;87.19;97585.31;5044428;28;20493;-76
2022/01/21 03:28:30;;;;;;;37.13;21.02;;;;;;;-3.41;86.36;97586.97;5011317;28;20061;-76
2022/01/21 03:30:59;;;;;;;35.00;20.40;;;;;;;-3.40;86.79;97581.91;4977089;28;20035;-76
2022/01/21 03:33:25;;;;;;;40.85;22.17;;;;;;;-3.39;86.61;97580.22;5022305;28;20057;-76
2022/01/21 03:35:53;;;;;;;38.80;22.00;;;;;;;-3.41;86.56;97577.69;5040613;28;20053;-76
2022/01/21 03:38:20;;;;;;;41.30;22.33;;;;;;;-3.37;86.60;97579.44;5042429;28;20049;-77
2022/01/21 03:40:46;;;;;;;40.72;21.23;;;;;;;-3.39;86.30;97565.03;5027680;28;20533;-77
2022/01/21 03:43:12;;;;;;;41.08;23.08;;;;;;;-3.34;86.64;97578.66;5008605;28;20057;-77
2022/01/21 03:45:39;;;;;;;39.15;20.45;;;;;;;-3.31;85.92;97571.09;5008073;28;20050;-77
2022/01/21 03:48:05;;;;;;;41.50;22.77;;;;;;;-3.40;86.12;97554.03;5026581;28;20038;-79
2022/01/21 03:50:32;;;;;;;42.40;22.17;;;;;;;-3.38;86.21;97557.47;5028256;28;20409;-76
2022/01/21 03:52:59;;;;;;;39.25;22.10;;;;;;;-3.33;86.31;97560.06;5036373;28;20030;-76
2022/01/21 03:55:25;;;;;;;38.63;21.65;;;;;;;-3.34;86.62;97556.69;5029754;28;20041;-78
2022/01/21 03:57:51;;;;;;;41.58;22.23;;;;;;;-3.32;86.57;97556.72;5011377;28;20034;-80
2022/01/21 04:00:32;;;;;;;39.92;21.15;;;;;;;-3.40;86.59;97548.13;5025352;28;20556;-77
2022/01/21 04:02:58;;;;;;;37.90;22.15;;;;;;;-3.37;86.76;97564.25;5030946;28;20057;-76
2022/01/21 04:05:25;;;;;;;40.38;22.40;;;;;;;-3.34;86.35;97555.84;5029852;28;20401;-76
2022/01/21 04:07:51;;;;;;;44.15;23.90;;;;;;;-3.32;87.00;97546.56;5031641;28;20041;-78
2022/01/21 04:10:17;;;;;;;38.65;22.10;;;;;;;-3.26;86.03;97549.19;5015173;28;20033;-78
2022/01/21 04:12:42;;;;;;;40.92;22.50;;;;;;;-3.28;86.34;97539.88;5031327;28;20037;-76
2022/01/21 04:15:08;;;;;;;41.78;22.00;;;;;;;-3.26;86.23;97531.44;5031564;28;20029;-78
2022/01/21 04:17:35;;;;;;;40.47;22.25;;;;;;;-3.22;86.82;97517.13;5015324;28;20077;-76
2022/01/21 04:20:01;;;;;;;45.40;22.75;;;;;;;-3.17;86.98;97516.38;5014751;28;20069;-78
2022/01/21 04:22:27;;;;;;;38.28;21.05;;;;;;;-3.15;86.69;97509.66;5047808;28;20453;-76
2022/01/21 04:24:54;;;;;;;40.40;21.80;;;;;;;-3.04;86.43;97514.03;5031520;28;20041;-78
2022/01/21 04:27:20;;;;;;;42.80;23.35;;;;;;;-3.04;86.32;97501.34;5031575;28;20049;-78
2022/01/21 04:29:46;;;;;;;41.75;24.05;;;;;;;-3.18;85.47;97491.84;5014596;28;20120;-77
2022/01/21 04:32:15;;;;;;;39.85;22.30;;;;;;;-2.99;86.39;97505.66;5031996;28;20037;-77
2022/01/21 04:34:42;;;;;;;40.40;22.55;;;;;;;-3.05;85.86;97489.50;4998429;28;20133;-77
2022/01/21 04:37:12;;;;;;;38.58;22.38;;;;;;;-3.02;86.31;97489.53;5015031;28;20054;-77
2022/01/21 04:40:08;;;;;;;38.00;21.75;;;;;;;-3.07;86.22;97485.28;5001576;28;20050;-76
2022/01/21 04:48:04;;;;;;;42.22;23.73;;;;;;;-3.09;86.14;97469.16;5000805;28;20128;-78
2022/01/21 04:50:40;;;;;;;39.78;22.77;;;;;;;-3.05;86.09;97479.38;4998673;28;20030;-78
2022/01/21 04:53:07;;;;;;;42.78;24.33;;;;;;;-3.10;86.02;97500.44;4999481;28;20449;-79
2022/01/21 04:55:37;;;;;;;40.47;22.90;;;;;;;-3.16;86.39;97502.88;5031987;28;20033;-78
2022/01/21 04:58:03;;;;;;;43.10;25.05;;;;;;;-3.25;86.51;97494.25;4997984;28;20508;-78
2022/01/21 05:00:29;;;;;;;42.90;24.15;;;;;;;-3.22;86.63;97494.31;4997471;28;20408;-78
2022/01/21 05:02:57;;;;;;;44.88;23.38;;;;;;;-3.22;86.29;97486.72;5013871;28;20585;-78
2022/01/21 05:05:24;;;;;;;41.80;23.83;;;;;;;-3.21;86.63;97490.94;4998198;28;20072;-77
2022/01/21 05:07:50;;;;;;;;;;;;;;;-3.22;87.03;97492.63;4982355;28;20436;-77
2022/01/21 05:10:16;;;;;;;44.60;25.13;;;;;;;-3.24;86.55;97480.78;5014205;28;19920;-77
2022/01/21 05:12:43;;;;;;;41.95;24.55;;;;;;;-3.30;86.23;97478.13;5046872;28;20041;-76
2022/01/21 05:16:28;;;;;;;47.20;25.27;;;;;;;-3.29;86.69;97473.09;5013709;28;20034;-77
2022/01/21 05:18:05;;;;;;;44.40;24.48;;;;;;;-3.26;86.51;97477.34;4988835;28;20527;-77
2022/01/21 05:20:41;;;;;;;47.33;24.35;;;;;;;-3.25;86.53;97476.50;5032409;28;20053;-78
2022/01/21 05:23:14;;;;;;;43.20;23.95;;;;;;;-3.21;87.17;97475.72;5013705;28;20042;-77
2022/01/21 05:25:39;;;;;;;45.65;24.10;;;;;;;-3.16;86.94;97471.56;4997594;28;20046;-78
2022/01/21 05:28:05;;;;;;;43.55;22.88;;;;;;;-3.16;86.48;97469.03;4997588;28;20065;-77
2022/01/21 05:30:39;;;;;;;47.88;23.83;;;;;;;-3.10;87.09;97462.41;5013812;28;20034;-79
2022/01/21 05:33:21;;;;;;;46.90;25.08;;;;;;;-3.11;86.00;97464.91;5000136;28;20136;-79
2022/01/21 05:36:19;;;;;;;44.80;24.90;;;;;;;-3.03;86.35;97475.16;5024526;28;20042;-77
2022/01/21 05:39:18;;;;;;;46.30;25.83;;;;;;;-3.09;85.94;97465.78;5014434;28;20108;-78
2022/01/21 05:42:08;;;;;;;49.83;25.25;;;;;;;-3.07;86.31;97456.50;4992857;28;20401;-78
2022/01/21 05:47:41;;;;;;;47.13;25.45;;;;;;;-3.05;86.21;97452.31;5013424;28;20042;-79
2022/01/21 05:50:25;;;;;;;51.83;25.17;;;;;;;-3.00;85.53;97465.06;5013195;28;20041;-77
2022/01/21 05:53:19;;;;;;;49.47;24.42;;;;;;;-2.96;86.19;97454.13;5000995;28;20513;-77
2022/01/21 05:56:01;;;;;;;46.92;25.48;;;;;;;-2.95;86.31;97455.81;5014525;28;20068;-78
2022/01/21 05:58:43;;;;;;;47.03;23.95;;;;;;;-2.99;86.04;97457.47;5013735;28;20042;-77
2022/01/21 06:01:09;;;;;;;47.10;24.02;;;;;;;-2.95;85.15;97451.59;5013179;28;20064;-78
2022/01/21 06:03:34;;;;;;;46.72;25.38;;;;;;;-3.02;85.72;97454.91;5012686;28;20058;-78
2022/01/21 06:06:00;;;;;;;;;;;;;;;-3.02;85.22;97462.50;4981251;28;20045;-77
2022/01/21 06:08:26;;;;;;;47.03;25.00;;;;;;;-3.13;85.42;97436.97;5013053;28;19917;-80
2022/01/21 06:10:52;;;;;;;46.25;23.90;;;;;;;-3.06;85.64;97455.69;5013022;28;20425;-78
2022/01/21 06:13:18;;;;;;;47.38;24.83;;;;;;;-3.07;86.06;97461.56;5013370;28;20042;-78
2022/01/21 06:15:45;;;;;;;46.97;25.23;;;;;;;-3.09;85.65;97459.03;5046270;28;20042;-78
2022/01/21 06:18:11;;;;;;;47.78;25.13;;;;;;;-3.13;85.77;97449.66;5012669;28;20507;-78
2022/01/21 06:20:37;;;;;;;48.45;26.65;;;;;;;-3.11;85.95;97450.56;5012202;28;20501;-79
2022/01/21 06:23:04;;;;;;;47.75;24.83;;;;;;;-3.09;86.08;97438.72;5012534;28;20068;-79
2022/01/21 06:25:29;;;;;;;;;;;;;;;-3.04;86.41;97451.47;4996736;28;20072;-77
2022/01/21 06:27:55;;;;;;;48.80;24.90;;;;;;;-3.05;85.57;97439.63;5045546;28;19918;-76
2022/01/21 06:30:20;;;;;;;51.67;25.48;;;;;;;-3.04;85.75;97435.41;4996311;28;20034;-78
2022/01/21 06:32:46;;;;;;;50.33;27.10;;;;;;;-3.03;85.52;97426.97;4996634;28;20358;-78
2022/01/21 06:35:12;;;;;;;52.03;26.88;;;;;;;-2.99;85.85;97438.84;5013531;28;20038;-78
2022/01/21 06:37:38;;;;;;;48.40;24.42;;;;;;;-3.03;85.31;97427.81;4996430;28;20484;-78
2022/01/21 06:40:05;;;;;;;50.30;26.55;;;;;;;-3.00;85.15;97427.00;5012450;28;20065;-78
2022/01/21 06:42:30;;;;;;;47.53;25.20;;;;;;;-3.04;84.84;97433.72;5012862;28;20445;-77
2022/01/21 06:44:56;;;;;;;46.65;24.73;;;;;;;-3.06;85.13;97432.88;4996079;28;20038;-77
2022/01/21 06:47:22;;;;;;;45.90;23.98;;;;;;;-3.00;84.75;97427.88;5012474;28;20523;-77
2022/01/21 06:49:49;;;;;;;46.08;25.58;;;;;;;-2.98;84.91;97433.78;5045284;28;20034;-77
2022/01/21 06:52:14;;;;;;;52.15;25.48;;;;;;;-2.93;84.85;97432.19;4979965;28;20044;-77
2022/01/21 06:54:40;;;;;;;50.17;25.10;;;;;;;-2.90;84.58;97428.84;4996287;28;20038;-78
2022/01/21 06:57:06;;;;;;;48.30;25.83;;;;;;;-2.93;83.90;97424.59;5045217;28;20485;-79
2022/01/21 06:59:32;;;;;;;48.10;25.35;;;;;;;-2.89;84.31;97428.84;4995779;28;20038;-79
2022/01/21 07:01:57;;;;;;;47.75;24.65;;;;;;;-2.89;84.33;97425.47;5012879;28;20124;-78
2022/01/21 07:04:23;;;;;;;43.75;24.75;;;;;;;-2.93;84.18;97428.78;5028563;28;20057;-77
2022/01/21 07:06:49;;;;;;;46.90;25.13;;;;;;;-2.99;83.68;97426.16;5013444;28;20050;-81
2022/01/21 07:09:14;;;;;;;48.75;23.55;;;;;;;-3.04;84.06;97413.44;5012792;28;20042;-77
2022/01/21 07:11:40;;;;;;;52.78;26.27;;;;;;;-3.11;84.06;97412.50;5012426;28;20045;-78
2022/01/21 07:14:06;;;;;;;49.70;25.70;;;;;;;-3.01;85.33;97422.78;5013334;28;20046;-78
2022/01/21 07:16:31;;;;;;;52.92;27.80;;;;;;;-2.98;84.88;97426.19;4979710;28;20042;-78
2022/01/21 07:18:57;;;;;;;48.70;26.05;;;;;;;-2.99;84.69;97426.16;4979595;28;20042;-78
2022/01/21 07:21:23;;;;;;;48.28;25.88;;;;;;;-3.00;84.54;97420.25;4979610;28;20140;-79
2022/01/21 07:23:49;;;;;;;49.70;24.98;;;;;;;-3.02;84.56;97408.38;5011810;28;20137;-78
2022/01/21 07:26:14;;;;;;;50.88;25.10;;;;;;;-2.99;84.23;97416.03;5012103;28;20080;-77
2022/01/21 07:28:40;;;;;;;48.28;25.92;;;;;;;-3.09;84.59;97418.44;5013498;28;20092;-77
2022/01/21 07:31:06;;;;;;;41.55;22.88;;;;;;;-3.11;84.51;97409.13;5011798;28;20099;-81
2022/01/21 07:33:32;;;;;;;41.63;21.88;;;;;;;-3.04;84.85;97415.13;4995575;28;20116;-78
2022/01/21 07:35:58;;;;;;;46.00;25.85;;;;;;;-3.08;85.85;97410.00;5011902;28;20046;-77
2022/01/21 07:38:23;;;;;;;47.92;24.17;;;;;;;-3.08;85.39;97410.00;5013389;28;20034;-78
2022/01/21 07:40:49;;;;;;;45.28;23.42;;;;;;;-3.05;85.40;97413.41;4995541;28;20046;-79
2022/01/21 07:43:15;;;;;;;44.90;23.65;;;;;;;-3.11;84.84;97411.66;5013151;28;20501;-79
2022/01/21 07:45:40;;;;;;;45.13;23.92;;;;;;;-3.14;84.35;97407.38;4979647;28;20038;-80
2022/01/21 07:48:06;;;;;;;46.65;23.52;;;;;;;-3.14;85.41;97394.72;5011667;28;20408;-79
2022/01/21 07:50:33;;;;;;;44.25;23.27;;;;;;;-3.05;85.20;97400.75;4995953;28;20099;-78
2022/01/21 07:52:59;;;;;;;41.75;21.98;;;;;;;-2.98;85.58;97405.03;5012096;28;20080;-77
2022/01/21 07:55:25;;;;;;;45.35;24.20;;;;;;;-3.00;84.76;97402.50;5013077;28;20041;-78
2022/01/21 07:57:51;;;;;;;41.85;23.50;;;;;;;-3.01;84.37;97400.81;5011979;28;20034;-78
2022/01/21 08:00:17;;;;;;;44.30;23.65;;;;;;;-3.01;84.71;97395.72;5013399;28;20076;-78
2022/01/21 08:02:42;;;;;;;;;;;;;;;-2.98;84.17;97394.91;5013375;28;20066;-76
2022/01/21 08:05:08;;;;;;;36.80;20.88;;;;;;;-3.07;83.38;97388.91;5045147;28;19913;-77
2022/01/21 08:07:34;;;;;;;46.78;25.98;;;;;;;-3.05;84.07;97383.84;5013023;28;20413;-78
2022/01/21 08:10:00;;;;;;;38.97;21.70;;;;;;;-2.94;84.53;97392.41;4995657;28;20034;-78
2022/01/21 08:12:25;;;;;;;39.92;21.58;;;;;;;-2.95;83.90;97393.25;5011680;28;20048;-77
2022/01/21 08:14:51;;;;;;;38.92;20.33;;;;;;;-2.96;83.37;97389.03;5012905;28;20045;-77
2022/01/21 08:17:17;;;;;;;42.30;21.88;;;;;;;-2.88;84.56;97384.06;5011581;28;20053;-78
2022/01/21 08:19:42;;;;;;;39.55;21.15;;;;;;;-2.93;83.95;97385.66;4995611;28;20030;-79
2022/01/21 08:22:08;;;;;;;42.22;21.25;;;;;;;-3.00;83.27;97381.34;4995981;28;20366;-78
2022/01/21 08:24:34;;;;;;;37.90;20.98;;;;;;;-2.97;83.83;97383.94;5012162;28;20045;-78
2022/01/21 08:27:00;;;;;;;40.00;21.40;;;;;;;-2.91;84.37;97376.41;5012019;28;20042;-78
2022/01/21 08:29:25;;;;;;;40.30;21.20;;;;;;;-2.90;84.30;97371.34;4978963;28;20397;-78
2022/01/21 08:31:51;;;;;;;40.63;22.48;;;;;;;-2.85;83.99;97384.06;4995402;28;20049;-78
2022/01/21 08:34:17;;;;;;;40.35;21.75;;;;;;;-2.82;83.89;97379.03;5014368;28;20040;-78
2022/01/21 08:36:44;;;;;;;40.60;23.00;;;;;;;-2.92;83.48;97379.78;5016186;28;20069;-78
2022/01/21 08:39:09;;;;;;;36.15;21.38;;;;;;;-2.95;83.02;97374.66;5016121;28;20049;-79
2022/01/21 08:41:35;;;;;;;38.17;20.83;;;;;;;-2.96;84.27;97370.41;4998925;28;20037;-77
2022/01/21 08:44:01;;;;;;;43.55;21.35;;;;;;;-2.93;84.31;97366.25;5016145;28;20041;-79
2022/01/21 08:46:27;;;;;;;34.70;19.17;;;;;;;-2.96;84.42;97352.66;5016289;28;20065;-77
2022/01/21 08:48:52;;;;;;;34.28;20.13;;;;;;;-2.89;84.19;97362.88;5015302;28;20046;-78
2022/01/21 08:51:26;;;;;;;34.33;20.10;;;;;;;-2.90;83.98;97367.94;5015266;28;20477;-78
2022/01/21 08:53:52;;;;;;;38.72;20.95;;;;;;;-2.89;83.92;97364.56;5015029;28;20049;-78
2022/01/21 08:56:18;;;;;;;;;;;;;;;-2.90;84.77;97362.88;5016229;28;20037;-78
2022/01/21 08:58:44;;;;;;;37.03;19.75;;;;;;;-2.85;84.48;97361.25;5015869;28;19924;-78
2022/01/21 09:01:09;;;;;;;;;;;;;;;-2.82;85.09;97351.13;5016112;28;20129;-79
2022/01/21 09:03:36;;;;;;;38.65;20.33;;;;;;;-2.82;85.12;97341.00;5014447;28;20407;-78
2022/01/21 09:06:02;;;;;;;32.30;18.63;;;;;;;-2.82;84.93;97346.06;5014603;28;20049;-79
2022/01/21 09:08:30;;;;;;;37.53;19.50;;;;;;;-2.87;84.30;97333.31;4998729;28;20076;-78
2022/01/21 09:10:57;;;;;;;34.00;19.35;;;;;;;-2.85;85.07;97331.66;5014915;28;20421;-79
2022/01/21 09:13:26;;;;;;;35.92;19.80;;;;;;;-2.71;85.07;97338.56;4998473;28;20042;-78
2022/01/21 09:15:52;;;;;;;38.38;20.52;;;;;;;-2.71;85.27;97344.47;5014620;28;20033;-79
2022/01/21 09:18:19;;;;;;;33.83;18.98;;;;;;;-2.77;84.20;97334.28;5015648;28;20045;-79
2022/01/21 09:20:45;;;;;;;36.20;20.33;;;;;;;-2.72;85.34;97329.25;4998608;28;20084;-78
2022/01/21 09:23:11;;;;;;;32.03;19.23;;;;;;;-2.67;85.00;97331.00;5015335;28;20049;-78
2022/01/21 09:25:37;;;;;;;36.75;18.63;;;;;;;-2.67;85.09;97315.75;5013976;28;20072;-79
2022/01/21 09:28:03;;;;;;;35.28;18.95;;;;;;;-2.68;84.91;97320.84;5015230;28;20616;-78
2022/01/21 09:30:29;;;;;;;33.65;18.25;;;;;;;-2.65;85.12;97319.19;4997525;28;20030;-78
2022/01/21 09:32:56;;;;;;;34.97;19.20;;;;;;;-2.65;85.35;97310.72;5015084;28;20044;-78
2022/01/21 09:35:22;;;;;;;39.35;19.90;;;;;;;-2.61;84.83;97320.09;5014166;28;20065;-77
2022/01/21 09:37:47;;;;;;;35.10;19.33;;;;;;;-2.64;85.06;97302.28;5013786;28;20480;-78
2022/01/21 09:40:13;;;;;;;36.00;19.08;;;;;;;-2.56;85.54;97316.75;5014355;28;20046;-78
2022/01/21 09:42:39;;;;;;;36.65;18.90;;;;;;;-2.50;85.37;97310.03;5014128;28;20099;-78
2022/01/21 09:45:09;;;;;;;35.28;19.02;;;;;;;-2.49;84.82;97310.03;5015070;28;20052;-78
2022/01/21 09:47:45;;;;;;;33.45;19.33;;;;;;;-2.48;84.87;97315.94;4997471;28;20037;-78
2022/01/21 09:50:12;;;;;;;37.42;20.60;;;;;;;-2.44;85.06;97310.06;5013882;28;20072;-78
2022/01/21 09:52:37;;;;;;;38.30;22.27;;;;;;;-2.43;84.78;97310.09;5030242;28;20053;-78
2022/01/21 09:55:05;;;;;;;40.67;24.02;;;;;;;-2.41;84.64;97312.66;4997239;28;20038;-78
2022/01/21 09:57:31;;;;;;;33.90;19.45;;;;;;;-2.40;84.86;97312.66;4997045;28;20046;-77
2022/01/21 09:59:58;;;;;;;34.83;18.85;;;;;;;-2.38;84.90;97303.38;4997107;28;20045;-77
2022/01/21 10:02:28;;;;;;;33.28;18.65;;;;;;;-2.36;85.23;97305.91;5013236;28;20405;-77
2022/01/21 10:04:56;;;;;;;35.47;18.15;;;;;;;-2.34;84.68;97304.22;5014607;28;20045;-77
2022/01/21 10:07:22;;;;;;;32.88;18.42;;;;;;;-2.38;83.86;97302.53;4980954;28;20042;-80
2022/01/21 10:09:48;;;;;;;32.33;17.85;;;;;;;-2.39;84.34;97296.56;5014761;28;20044;-78
2022/01/21 10:12:14;;;;;;;;;;;;;;;-2.38;84.34;97297.44;5014900;28;20040;-78
2022/01/21 10:14:40;;;;;;;34.22;18.95;;;;;;;-2.42;83.71;97291.50;5046689;28;20372;-78
2022/01/21 10:17:06;;;;;;;30.45;17.90;;;;;;;-2.45;84.57;97288.06;4980575;28;20052;-78
2022/01/21 10:19:33;;;;;;;31.42;18.10;;;;;;;-2.44;83.95;97292.28;5013118;28;20527;-78
2022/01/21 10:22:08;;;;;;;33.65;18.58;;;;;;;-2.47;84.40;97284.69;5014145;28;20081;-79
2022/01/21 10:24:35;;;;;;;32.92;18.75;;;;;;;-2.43;84.41;97284.72;5013031;28;20042;-78
2022/01/21 10:27:01;;;;;;;37.25;20.20;;;;;;;-2.45;84.96;97280.44;5014523;28;20160;-79
2022/01/21 10:29:41;;;;;;;33.65;20.40;;;;;;;-2.48;84.40;97271.09;5013235;28;20037;-82
2022/01/21 10:32:07;;;;;;;31.15;17.98;;;;;;;-2.42;84.52;97280.47;4997482;28;20065;-81
2022/01/21 10:34:41;;;;;;;32.45;18.50;;;;;;;-2.43;84.45;97274.56;4997257;28;20151;-81
2022/01/21 10:37:26;;;;;;;31.85;18.23;;;;;;;-2.45;84.04;97278.75;4996505;28;20133;-81
2022/01/21 10:40:08;;;;;;;34.08;19.55;;;;;;;-2.48;84.57;97268.56;5012915;28;20048;-77
2022/01/21 10:42:34;;;;;;;34.65;19.20;;;;;;;-2.43;84.54;97266.06;4996585;28;20053;-82
2022/01/21 10:45:00;;;;;;;34.00;18.80;;;;;;;-2.40;84.79;97264.41;4980600;28;20044;-80
2022/01/21 10:47:27;;;;;;;31.58;18.60;;;;;;;-2.27;85.23;97264.53;4980095;28;20543;-76
2022/01/21 10:49:59;;;;;;;33.70;19.80;;;;;;;-2.22;84.71;97263.72;5012142;28;20042;-82
2022/01/21 10:52:37;;;;;;;37.80;21.98;;;;;;;-2.27;84.52;97262.81;5012443;28;20042;-79
2022/01/21 10:55:06;;;;;;;35.83;19.30;;;;;;;-2.24;84.53;97265.41;4998009;28;20045;-81
2022/01/21 10:57:32;;;;;;;29.55;18.05;;;;;;;-2.28;84.27;97262.81;5028545;28;20037;-77
2022/01/21 11:00:09;;;;;;;28.92;16.63;;;;;;;-2.29;84.07;97261.97;5012901;28;20073;-78
2022/01/21 11:02:47;;;;;;;30.13;17.83;;;;;;;-2.25;84.30;97266.22;4997361;28;20501;-77
2022/01/21 11:05:39;;;;;;;32.80;18.02;;;;;;;-2.29;84.06;97256.91;5013616;28;20042;-77
2022/01/21 11:08:09;;;;;;;33.83;18.67;;;;;;;-2.27;84.31;97255.22;5013749;28;20044;-79
2022/01/21 11:10:56;;;;;;;31.33;17.55;;;;;;;-2.22;84.14;97250.16;5013138;28;20109;-78
2022/01/21 11:13:22;;;;;;;32.22;17.63;;;;;;;-2.18;84.47;97246.81;5012114;28;20038;-78
2022/01/21 11:15:48;;;;;;;29.02;16.92;;;;;;;-2.22;84.10;97243.41;5012516;28;20038;-79
2022/01/21 11:18:17;;;;;;;28.15;16.25;;;;;;;-2.21;84.00;97240.00;5028759;28;20047;-81
2022/01/21 11:20:47;;;;;;;29.48;16.77;;;;;;;-2.18;83.67;97245.13;5012126;28;20370;-81
2022/01/21 11:23:13;;;;;;;32.28;18.02;;;;;;;-2.30;83.38;97238.25;4980299;28;20037;-83
2022/01/21 11:26:00;;;;;;;28.42;16.85;;;;;;;-2.22;83.27;97245.94;5012125;28;20470;-79
2022/01/21 11:28:39;;;;;;;;;;;;;;;-2.18;83.89;97250.19;5029916;28;20414;-78
2022/01/21 11:31:05;;;;;;;32.40;17.55;;;;;;;-2.31;82.91;97234.00;5013477;28;20395;-77
2022/01/21 11:33:30;;;;;;;28.17;15.10;;;;;;;-2.27;82.92;97245.06;4979617;28;20121;-78
2022/01/21 11:35:56;;;;;;;29.83;17.77;;;;;;;-2.33;82.84;97224.69;4996035;28;20138;-77
2022/01/21 11:38:23;;;;;;;27.23;16.48;;;;;;;-2.24;83.44;97234.09;5012038;28;20041;-77
2022/01/21 11:40:50;;;;;;;28.38;16.60;;;;;;;-2.17;83.65;97231.56;4980077;28;20046;-79
2022/01/21 11:43:16;;;;;;;29.38;17.27;;;;;;;-2.10;82.89;97248.56;5012174;28;20497;-78
2022/01/21 11:46:05;;;;;;;;;;;;;;;-2.10;82.72;97243.50;4996292;28;20045;-78
2022/01/21 11:51:31;;;;;;;26.73;15.85;;;;;;;-2.19;82.27;97245.97;5012729;28;20371;-78
2022/01/21 11:54:13;;;;;;;26.10;14.88;;;;;;;-2.11;82.31;97239.25;5030654;28;20401;-78
2022/01/21 11:56:46;;;;;;;28.23;15.77;;;;;;;-2.05;81.95;97240.97;5012928;28;20045;-77
2022/01/21 11:59:27;;;;;;;26.30;14.75;;;;;;;-2.03;81.59;97231.66;5011648;28;20045;-79
2022/01/21 12:01:53;;;;;;;29.05;16.25;;;;;;;-1.99;81.39;97235.94;4981567;28;20069;-77
2022/01/21 12:04:52;;;;;;;27.67;16.20;;;;;;;-1.89;81.45;97247.00;5011826;28;20061;-79
2022/01/21 12:07:48;;;;;;;25.58;13.82;;;;;;;-1.84;81.39;97250.41;4997316;28;20049;-82
2022/01/21 12:10:23;;;;;;;25.55;15.85;;;;;;;-1.77;81.38;97251.31;5017179;28;20042;-78
2022/01/21 12:13:06;;;;;;;27.15;15.52;;;;;;;-1.85;80.55;97248.72;5016820;28;20037;-80
2022/01/21 12:21:04;;;;;;;26.55;15.55;;;;;;;-2.11;80.82;97235.84;5015284;28;20112;-78
2022/01/21 12:23:31;;;;;;;26.38;15.73;;;;;;;-2.13;81.00;97237.53;5015186;28;20049;-77